createdAt,value
2019-03-09T00:01:24.349Z,11.20
2019-03-09T00:03:54.399Z,11.33
2019-03-09T00:06:24.459Z,10.18
2019-03-09T00:08:54.381Z,10.08
2019-03-09T00:11:24.353Z,11.22
2019-03-09T00:13:54.247Z,11.85
2019-03-09T00:16:24.204Z,11.20
2019-03-09T00:18:54.188Z,11.22
2019-03-09T00:21:24.277Z,11.08
2019-03-09T00:24:14.288Z,11.10
2019-03-09T00:26:46.122Z,11.33
2019-03-09T00:29:20.238Z,11.48
2019-03-09T00:31:54.647Z,11.90
2019-03-09T00:34:24.737Z,11.12
2019-03-09T00:36:55.084Z,10.50
2019-03-09T00:39:25.190Z,11.35
2019-03-09T00:41:55.161Z,10.43
2019-03-09T00:44:25.147Z,11.12
2019-03-09T00:46:55.204Z,12.43
2019-03-09T00:49:25.556Z,11.65
2019-03-09T00:51:55.473Z,11.55
2019-03-09T00:54:25.467Z,12.20
2019-03-09T00:56:55.468Z,11.55
2019-03-09T00:59:25.445Z,12.10
2019-03-09T01:01:55.340Z,11.57
2019-03-09T01:04:25.384Z,12.18
2019-03-09T01:06:55.396Z,12.23
2019-03-09T01:09:25.405Z,11.53
2019-03-09T01:11:55.443Z,11.68
2019-03-09T01:14:25.518Z,11.25
2019-03-09T01:16:55.413Z,12.43
2019-03-09T01:19:25.291Z,11.25
2019-03-09T01:21:55.178Z,11.85
2019-03-09T01:24:25.218Z,11.48
2019-03-09T01:26:55.219Z,12.28
2019-03-09T01:29:25.190Z,11.35
2019-03-09T01:31:55.188Z,11.28
2019-03-09T01:34:25.155Z,12.05
2019-03-09T01:36:56.061Z,11.85
2019-03-09T01:39:26.030Z,11.85
2019-03-09T01:41:55.946Z,12.13
2019-03-09T01:44:25.777Z,12.50
2019-03-09T01:46:55.707Z,11.97
2019-03-09T01:49:25.737Z,12.50
2019-03-09T01:51:55.656Z,12.05
2019-03-09T01:54:25.553Z,11.60
2019-03-09T01:56:55.543Z,12.43
2019-03-09T01:59:25.623Z,11.38
2019-03-09T02:01:55.531Z,12.18
2019-03-09T02:04:25.575Z,11.48
2019-03-09T02:06:55.490Z,12.43
2019-03-09T02:09:25.390Z,13.65
2019-03-09T02:11:55.352Z,13.28
2019-03-09T02:14:25.511Z,14.13
2019-03-09T02:16:55.421Z,14.55
2019-03-09T02:19:25.448Z,14.13
2019-03-09T02:21:55.434Z,14.45
2019-03-09T02:24:25.336Z,14.03
2019-03-09T02:26:55.329Z,14.95
2019-03-09T02:29:25.303Z,14.05
2019-03-09T02:31:55.358Z,14.58
2019-03-09T02:34:25.422Z,14.45
2019-03-09T02:36:55.341Z,14.10
2019-03-09T02:39:35.587Z,15.05
2019-03-09T02:42:05.600Z,15.38
2019-03-09T02:44:35.560Z,14.58
2019-03-09T02:47:05.594Z,14.45
2019-03-09T02:49:35.432Z,12.53
2019-03-09T02:52:05.556Z,13.45
2019-03-09T02:54:35.475Z,13.43
2019-03-09T02:57:05.439Z,15.75
2019-03-09T02:59:35.354Z,15.35
2019-03-09T03:02:06.964Z,16.05
2019-03-09T03:04:36.884Z,14.53
2019-03-09T03:07:07.873Z,15.03
2019-03-09T03:09:37.980Z,14.55
2019-03-09T03:12:07.952Z,14.78
2019-03-09T03:14:37.881Z,13.88
2019-03-09T03:17:08.849Z,13.55
2019-03-09T03:19:38.825Z,15.13
2019-03-09T03:22:08.822Z,15.15
2019-03-09T03:24:38.842Z,14.07
2019-03-09T03:27:08.972Z,13.75
2019-03-09T03:29:39.020Z,12.58
2019-03-09T03:32:08.872Z,13.32
2019-03-09T03:34:38.854Z,15.65
2019-03-09T03:37:08.763Z,18.73
2019-03-09T03:39:38.756Z,15.83
2019-03-09T03:42:08.880Z,14.20
2019-03-09T03:44:45.196Z,13.90
2019-03-09T03:47:15.091Z,15.65
2019-03-09T03:49:44.999Z,13.32
2019-03-09T03:52:14.981Z,13.93
2019-03-09T03:54:44.901Z,15.93
2019-03-09T03:57:14.722Z,16.42
2019-03-09T03:59:44.721Z,15.25
2019-03-09T04:02:14.784Z,16.80
2019-03-09T04:04:44.801Z,16.80
2019-03-09T04:07:14.749Z,17.30
2019-03-09T04:09:44.675Z,16.17
2019-03-09T04:12:14.569Z,16.82
2019-03-09T04:14:44.598Z,16.70
2019-03-09T04:17:15.531Z,16.48
2019-03-09T04:19:45.458Z,15.28
2019-03-09T04:22:15.291Z,16.23
2019-03-09T04:24:45.346Z,15.38
2019-03-09T04:27:15.322Z,16.15
2019-03-09T04:29:45.223Z,15.08
2019-03-09T04:32:15.219Z,14.90
2019-03-09T04:34:45.188Z,16.17
2019-03-09T04:37:15.185Z,16.05
2019-03-09T04:39:45.208Z,15.05
2019-03-09T04:42:15.189Z,14.75
2019-03-09T04:44:45.082Z,13.55
2019-03-09T04:47:15.052Z,14.47
2019-03-09T04:49:44.957Z,14.95
2019-03-09T04:52:14.989Z,14.40
2019-03-09T04:54:44.982Z,15.58
2019-03-09T04:57:14.944Z,15.80
2019-03-09T04:59:44.995Z,16.97
2019-03-09T05:02:14.914Z,18.17
2019-03-09T05:04:46.341Z,17.02
2019-03-09T05:07:19.841Z,17.23
2019-03-09T05:10:09.779Z,20.12
2019-03-09T05:12:39.920Z,16.23
2019-03-09T05:15:12.992Z,14.30
2019-03-09T05:17:42.898Z,16.52
2019-03-09T05:20:12.875Z,13.38
2019-03-09T05:22:42.873Z,14.47
2019-03-09T05:25:12.837Z,18.12
2019-03-09T05:27:42.765Z,16.50
2019-03-09T05:30:15.527Z,17.70
2019-03-09T05:32:45.440Z,16.15
2019-03-09T05:35:15.316Z,17.20
2019-03-09T05:37:45.341Z,16.37
2019-03-09T05:40:15.377Z,17.32
2019-03-09T05:42:45.216Z,17.55
2019-03-09T05:45:15.195Z,16.52
2019-03-09T05:47:45.233Z,17.07
2019-03-09T05:50:15.286Z,19.48
2019-03-09T05:52:48.428Z,17.82
2019-03-09T05:55:18.413Z,16.23
2019-03-09T05:57:48.364Z,15.80
2019-03-09T06:00:18.361Z,17.20
2019-03-09T06:02:48.373Z,18.02
2019-03-09T06:05:24.119Z,17.67
2019-03-09T06:07:54.080Z,22.05
2019-03-09T06:10:26.909Z,22.37
2019-03-09T06:12:56.872Z,22.62
2019-03-09T06:15:26.849Z,21.23
2019-03-09T06:17:56.895Z,21.68
2019-03-09T06:20:26.863Z,22.58
2019-03-09T06:22:56.785Z,19.42
2019-03-09T06:25:26.672Z,22.48
2019-03-09T06:27:56.672Z,22.32
2019-03-09T06:30:26.509Z,22.90
2019-03-09T06:33:20.889Z,22.02
2019-03-09T06:36:00.938Z,19.37
2019-03-09T06:38:50.673Z,19.75
2019-03-09T06:41:45.173Z,20.23
2019-03-09T06:44:15.072Z,21.45
2019-03-09T06:46:45.031Z,20.77
2019-03-09T06:49:15.005Z,20.77
2019-03-09T06:51:45.982Z,20.80
2019-03-09T06:54:15.998Z,20.72
2019-03-09T06:56:45.883Z,19.42
2019-03-09T06:59:15.880Z,20.55
2019-03-09T07:01:45.781Z,19.50
2019-03-09T07:04:15.675Z,20.32
2019-03-09T07:06:45.599Z,21.07
2019-03-09T07:09:15.492Z,21.10
2019-03-09T07:11:45.419Z,20.05
2019-03-09T07:14:37.875Z,21.25
2019-03-09T07:17:07.850Z,20.62
2019-03-09T07:19:37.806Z,21.15
2019-03-09T07:22:07.790Z,22.20
2019-03-09T07:24:37.746Z,21.45
2019-03-09T07:27:07.871Z,21.40
2019-03-09T07:29:37.913Z,21.17
2019-03-09T07:32:08.029Z,22.22
2019-03-09T07:34:38.097Z,21.90
2019-03-09T07:37:08.069Z,21.23
2019-03-09T07:39:38.118Z,22.70
2019-03-09T07:42:08.166Z,21.90
2019-03-09T07:44:38.133Z,21.93
2019-03-09T07:47:08.231Z,22.05
2019-03-09T07:49:38.146Z,24.23
2019-03-09T07:52:31.941Z,24.30
2019-03-09T07:55:01.768Z,25.37
2019-03-09T07:57:31.738Z,24.00
2019-03-09T08:00:01.807Z,25.08
2019-03-09T08:02:32.015Z,24.00
2019-03-09T08:05:02.072Z,25.30
2019-03-09T08:07:32.074Z,23.92
2019-03-09T08:10:02.039Z,23.60
2019-03-09T08:12:31.946Z,23.87
2019-03-09T08:15:01.886Z,24.43
2019-03-09T08:17:31.882Z,23.67
2019-03-09T08:20:01.850Z,21.48
2019-03-09T08:22:31.996Z,23.90
2019-03-09T08:25:02.119Z,22.15
2019-03-09T08:27:32.034Z,22.45
2019-03-09T08:30:02.465Z,23.00
2019-03-09T08:32:32.632Z,23.98
2019-03-09T08:35:02.568Z,24.98
2019-03-09T08:37:32.478Z,26.12
2019-03-09T08:40:02.630Z,24.85
2019-03-09T08:42:32.633Z,25.45
2019-03-09T08:45:02.565Z,26.73
2019-03-09T08:47:32.471Z,25.65
2019-03-09T08:50:02.486Z,25.37
2019-03-09T08:52:32.631Z,25.40
2019-03-09T08:55:02.671Z,26.68
2019-03-09T08:57:32.794Z,25.20
2019-03-09T09:00:02.845Z,24.82
2019-03-09T09:02:34.470Z,25.80
2019-03-09T09:05:05.420Z,25.43
2019-03-09T09:07:35.397Z,25.43
2019-03-09T09:10:07.673Z,25.20
2019-03-09T09:12:37.757Z,25.68
2019-03-09T09:15:10.965Z,25.72
2019-03-09T09:17:41.040Z,25.65
2019-03-09T09:20:15.904Z,25.43
2019-03-09T09:22:45.850Z,23.47
2019-03-09T09:25:15.897Z,23.65
2019-03-09T09:27:45.871Z,24.57
2019-03-09T09:30:18.657Z,20.40
2019-03-09T09:32:48.571Z,20.00
2019-03-09T09:35:18.778Z,21.15
2019-03-09T09:37:48.727Z,20.80
2019-03-09T09:40:23.475Z,20.37
2019-03-09T09:42:53.398Z,18.75
2019-03-09T09:45:23.360Z,19.10
2019-03-09T09:47:53.346Z,20.37
2019-03-09T09:50:24.402Z,19.73
2019-03-09T09:52:54.412Z,19.62
2019-03-09T09:55:24.442Z,20.02
2019-03-09T09:57:54.328Z,19.30
2019-03-09T10:00:26.656Z,18.25
2019-03-09T10:02:56.643Z,19.20
2019-03-09T10:05:26.633Z,18.10
2019-03-09T10:07:56.543Z,18.10
2019-03-09T10:10:26.355Z,17.35
2019-03-09T10:12:56.391Z,16.00
2019-03-09T10:15:29.481Z,14.43
2019-03-09T10:17:59.559Z,15.28
2019-03-09T10:20:29.596Z,15.43
2019-03-09T10:23:04.310Z,10.58
2019-03-09T10:25:31.280Z,9.35
2019-03-09T10:28:01.167Z,11.28
2019-03-09T10:30:31.177Z,13.25
2019-03-09T10:33:01.081Z,10.93
2019-03-09T10:35:31.145Z,10.82
2019-03-09T10:38:01.218Z,8.43
2019-03-09T10:40:31.133Z,7.12
2019-03-09T10:43:01.111Z,6.08
2019-03-09T10:45:31.004Z,7.15
2019-03-09T10:48:00.950Z,5.58
2019-03-09T10:50:30.921Z,4.67
2019-03-09T10:53:00.891Z,4.10
2019-03-09T10:55:34.611Z,3.90
2019-03-09T10:58:04.744Z,4.42
2019-03-09T11:00:43.153Z,4.00
2019-03-09T11:03:13.132Z,3.62
2019-03-09T11:05:43.053Z,4.00
2019-03-09T11:08:13.054Z,4.15
2019-03-09T11:10:43.012Z,4.08
2019-03-09T11:13:13.026Z,4.62
2019-03-09T11:15:43.639Z,3.72
2019-03-09T11:18:13.523Z,3.67
2019-03-09T11:20:43.588Z,3.80
2019-03-09T11:23:13.480Z,3.55
2019-03-09T11:25:43.467Z,3.10
2019-03-09T11:28:13.824Z,3.20
2019-03-09T11:30:44.694Z,3.40
2019-03-09T11:33:14.720Z,3.20
2019-03-09T11:35:44.765Z,3.30
2019-03-09T11:38:14.675Z,3.58
2019-03-09T11:40:44.936Z,3.72
2019-03-09T11:43:14.889Z,3.52
2019-03-09T11:45:44.849Z,3.67
2019-03-09T11:48:14.897Z,3.35
2019-03-09T11:50:44.788Z,3.60
2019-03-09T11:53:14.726Z,4.12
2019-03-09T11:55:44.760Z,3.95
2019-03-09T11:58:14.660Z,4.37
2019-03-09T12:00:45.930Z,4.25
2019-03-09T12:03:16.927Z,4.37
2019-03-09T12:05:46.768Z,5.10
2019-03-09T12:08:16.783Z,5.25
2019-03-09T12:10:46.713Z,5.75
2019-03-09T12:13:16.767Z,5.10
2019-03-09T12:15:46.669Z,5.30
2019-03-09T12:18:18.667Z,4.95
2019-03-09T12:20:48.785Z,5.87
2019-03-09T12:23:23.079Z,5.58
2019-03-09T12:25:53.167Z,5.22
2019-03-09T12:28:23.156Z,6.10
2019-03-09T12:30:53.180Z,6.20
2019-03-09T12:33:23.151Z,6.35
2019-03-09T12:35:53.249Z,6.30
2019-03-09T12:38:23.090Z,5.75
2019-03-09T12:40:53.130Z,5.40
2019-03-09T12:43:23.125Z,5.58
2019-03-09T12:45:53.108Z,5.50
2019-03-09T12:48:23.033Z,6.25
2019-03-09T12:50:52.916Z,5.03
2019-03-09T12:53:22.772Z,5.25
2019-03-09T12:55:52.686Z,5.20
2019-03-09T12:58:22.735Z,5.83
2019-03-09T13:00:53.781Z,6.03
2019-03-09T13:03:23.669Z,5.12
2019-03-09T13:05:53.713Z,5.40
2019-03-09T13:08:23.732Z,4.87
2019-03-09T13:10:55.873Z,4.70
2019-03-09T13:13:25.283Z,4.78
2019-03-09T13:15:55.278Z,5.15
2019-03-09T13:18:25.180Z,4.40
2019-03-09T13:20:55.088Z,4.97
2019-03-09T13:23:26.123Z,5.00
2019-03-09T13:25:56.092Z,4.65
2019-03-09T13:28:26.124Z,5.47
2019-03-09T13:30:56.161Z,5.90
2019-03-09T13:33:26.104Z,5.62
2019-03-09T13:35:57.138Z,5.45
2019-03-09T13:38:27.179Z,4.95
2019-03-09T13:40:58.180Z,5.30
2019-03-09T13:43:28.222Z,5.45
2019-03-09T13:45:58.117Z,5.08
2019-03-09T13:48:28.140Z,5.03
2019-03-09T13:50:58.118Z,5.75
2019-03-09T13:53:28.162Z,6.15
2019-03-09T13:55:58.185Z,6.00
2019-03-09T13:58:28.090Z,6.40
2019-03-09T14:00:58.300Z,6.15
2019-03-09T14:03:28.925Z,6.05
2019-03-09T14:05:58.741Z,6.60
2019-03-09T14:08:28.722Z,6.47
2019-03-09T14:10:58.541Z,6.47
2019-03-09T14:13:28.533Z,6.58
2019-03-09T14:15:58.555Z,6.35
2019-03-09T14:18:28.456Z,6.25
2019-03-09T14:20:58.425Z,6.65
2019-03-09T14:23:29.533Z,5.60
2019-03-09T14:25:59.566Z,6.37
2019-03-09T14:28:30.623Z,5.67
2019-03-09T14:31:00.645Z,5.92
2019-03-09T14:33:30.536Z,6.10
2019-03-09T14:36:00.544Z,5.75
2019-03-09T14:38:30.447Z,5.70
2019-03-09T14:41:00.485Z,5.83
2019-03-09T14:43:31.395Z,6.70
2019-03-09T14:46:01.426Z,6.45
2019-03-09T14:48:31.584Z,6.78
2019-03-09T14:51:01.466Z,6.62
2019-03-09T14:53:31.438Z,7.22
2019-03-09T14:56:01.380Z,6.50
2019-03-09T14:58:31.412Z,6.97
2019-03-09T15:01:02.321Z,7.00
2019-03-09T15:03:32.259Z,6.67
2019-03-09T15:06:02.156Z,7.05
2019-03-09T15:08:32.227Z,6.72
2019-03-09T15:11:02.130Z,6.72
2019-03-09T15:13:32.152Z,9.45
2019-03-09T15:16:02.136Z,7.22
2019-03-09T15:18:32.028Z,7.50
2019-03-09T15:21:01.949Z,7.20
2019-03-09T15:23:31.915Z,7.35
2019-03-09T15:26:01.829Z,7.75
2019-03-09T15:28:32.953Z,8.03
2019-03-09T15:31:02.803Z,7.22
2019-03-09T15:33:32.824Z,6.92
2019-03-09T15:36:02.778Z,7.33
2019-03-09T15:38:33.762Z,7.62
2019-03-09T15:41:03.760Z,7.58
2019-03-09T15:43:33.804Z,7.58
2019-03-09T15:46:03.707Z,7.35
2019-03-09T15:48:33.546Z,9.20
2019-03-09T15:51:03.523Z,7.70
2019-03-09T15:53:33.435Z,8.35
2019-03-09T15:56:03.327Z,7.17
2019-03-09T15:58:33.237Z,7.67
2019-03-09T16:01:03.148Z,8.03
2019-03-09T16:03:33.203Z,8.33
2019-03-09T16:06:03.073Z,9.03
2019-03-09T16:08:33.110Z,9.25
2019-03-09T16:11:03.163Z,8.65
2019-03-09T16:13:34.131Z,9.50
2019-03-09T16:16:04.123Z,10.40
2019-03-09T16:18:34.098Z,9.38
2019-03-09T16:21:04.015Z,9.38
2019-03-09T16:23:33.843Z,9.48
2019-03-09T16:26:03.964Z,9.20
2019-03-09T16:28:34.032Z,8.90
2019-03-09T16:31:03.968Z,9.35
2019-03-09T16:33:33.939Z,10.25
2019-03-09T16:36:03.859Z,10.38
2019-03-09T16:38:33.717Z,10.08
2019-03-09T16:41:03.691Z,10.30
2019-03-09T16:43:33.754Z,10.60
2019-03-09T16:46:03.743Z,10.13
2019-03-09T16:48:33.730Z,9.70
2019-03-09T16:51:03.713Z,9.93
2019-03-09T16:53:33.570Z,10.03
2019-03-09T16:56:03.475Z,9.80
2019-03-09T16:58:34.463Z,9.58
2019-03-09T17:01:04.438Z,10.60
2019-03-09T17:03:34.362Z,12.30
2019-03-09T17:06:05.526Z,13.68
2019-03-09T17:08:35.509Z,14.00
2019-03-09T17:11:05.363Z,13.30
2019-03-09T17:13:35.335Z,14.23
2019-03-09T17:16:05.396Z,13.80
2019-03-09T17:18:35.391Z,14.65
2019-03-09T17:21:05.249Z,14.07
2019-03-09T17:23:35.198Z,14.35
2019-03-09T17:26:05.191Z,13.13
2019-03-09T17:28:35.245Z,14.35
2019-03-09T17:31:05.218Z,13.62
2019-03-09T17:33:35.135Z,12.68
2019-03-09T17:36:05.053Z,13.18
2019-03-09T17:38:36.057Z,12.05
2019-03-09T17:41:06.040Z,11.93
2019-03-09T17:43:36.084Z,12.20
2019-03-09T17:46:05.997Z,12.30
2019-03-09T17:48:36.059Z,12.65
2019-03-09T17:51:06.092Z,13.75
2019-03-09T17:53:36.142Z,13.30
2019-03-09T17:56:06.195Z,13.50
2019-03-09T17:58:36.291Z,12.73
2019-03-09T18:01:06.397Z,12.63
2019-03-09T18:03:36.459Z,13.38
2019-03-09T18:06:06.457Z,13.62
2019-03-09T18:08:36.442Z,13.72
2019-03-09T18:11:11.328Z,14.93
2019-03-09T18:13:41.242Z,13.85
2019-03-09T18:16:11.308Z,14.25
2019-03-09T18:18:41.359Z,14.13
2019-03-09T18:21:11.418Z,14.20
2019-03-09T18:23:41.262Z,14.87
2019-03-09T18:26:11.259Z,13.80
2019-03-09T18:28:41.155Z,16.40
2019-03-09T18:31:11.088Z,17.17
2019-03-09T18:33:40.944Z,17.07
2019-03-09T18:36:10.929Z,16.05
2019-03-09T18:38:40.777Z,17.20
2019-03-09T18:41:10.685Z,17.25
2019-03-09T18:43:40.760Z,18.25
2019-03-09T18:46:10.679Z,16.07
2019-03-09T18:48:40.795Z,16.70
2019-03-09T18:51:10.707Z,16.62
2019-03-09T18:53:40.621Z,16.55
2019-03-09T18:56:11.521Z,17.42
2019-03-09T18:58:41.573Z,17.45
2019-03-09T19:01:11.489Z,18.67
2019-03-09T19:03:41.474Z,19.73
2019-03-09T19:06:11.385Z,21.37
2019-03-09T19:08:41.446Z,22.48
2019-03-09T19:11:11.281Z,21.85
2019-03-09T19:13:41.312Z,21.02
2019-03-09T19:16:11.395Z,22.82
2019-03-09T19:18:41.254Z,22.82
2019-03-09T19:21:13.415Z,22.48
2019-03-09T19:23:42.904Z,21.60
2019-03-09T19:26:12.912Z,34.83
2019-03-09T19:28:42.890Z,26.80
2019-03-09T19:31:12.790Z,27.30
2019-03-09T19:33:42.782Z,20.72
2019-03-09T19:36:12.780Z,19.20
2019-03-09T19:38:42.883Z,20.25
2019-03-09T19:41:12.872Z,22.87
2019-03-09T19:43:42.756Z,17.37
2019-03-09T19:46:12.817Z,13.22
2019-03-09T19:48:42.847Z,10.28
2019-03-09T19:51:33.101Z,77.75
2019-03-09T19:54:03.045Z,9.30
2019-03-09T19:56:33.008Z,7.37
2019-03-09T19:59:02.894Z,6.95
2019-03-09T20:01:32.876Z,6.90
2019-03-09T20:04:02.933Z,8.28
2019-03-09T20:06:33.059Z,7.12
2019-03-09T20:09:03.464Z,7.87
2019-03-09T20:11:34.125Z,7.67
2019-03-09T20:14:04.151Z,7.37
2019-03-09T20:16:34.069Z,7.62
2019-03-09T20:19:05.125Z,7.70
2019-03-09T20:21:35.256Z,8.25
2019-03-09T20:24:05.249Z,7.30
2019-03-09T20:26:35.300Z,6.58
2019-03-09T20:29:05.355Z,6.97
2019-03-09T20:31:35.259Z,7.12
2019-03-09T20:34:05.196Z,8.93
2019-03-09T20:36:35.254Z,14.78
2019-03-09T20:39:05.617Z,13.68
2019-03-09T20:41:37.192Z,7.92
2019-03-09T20:44:07.110Z,7.33
2019-03-09T20:46:41.888Z,7.05
2019-03-09T20:49:10.000Z,7.15
2019-03-09T20:51:39.903Z,6.42
2019-03-09T20:54:09.943Z,5.95
2019-03-09T20:56:39.976Z,7.45
2019-03-09T20:59:09.955Z,6.40
2019-03-09T21:01:39.804Z,7.22
2019-03-09T21:04:09.759Z,7.72
2019-03-09T21:06:40.760Z,5.85
2019-03-09T21:09:10.732Z,7.30
2019-03-09T21:11:41.231Z,64.58
2019-03-09T21:14:11.271Z,119.75
2019-03-09T21:16:41.264Z,57.25
2019-03-09T21:19:11.240Z,13.98
2019-03-09T21:21:41.161Z,8.80
2019-03-09T21:24:11.254Z,8.00
2019-03-09T21:26:41.355Z,6.83
2019-03-09T21:29:11.254Z,6.12
2019-03-09T21:31:41.137Z,5.78
2019-03-09T21:34:11.066Z,6.15
2019-03-09T21:36:41.117Z,5.92
2019-03-09T21:39:11.104Z,6.40
2019-03-09T21:41:41.925Z,6.72
2019-03-09T21:44:11.976Z,6.67
2019-03-09T21:46:41.924Z,9.35
2019-03-09T21:49:12.019Z,112.37
2019-03-09T21:51:41.996Z,86.17
2019-03-09T21:54:11.846Z,116.00
2019-03-09T21:56:41.898Z,21.12
2019-03-09T21:59:11.814Z,40.80
2019-03-09T22:01:41.860Z,35.30
2019-03-09T22:04:11.849Z,46.08
2019-03-09T22:06:44.836Z,40.48
2019-03-09T22:09:14.925Z,24.15
2019-03-09T22:11:45.070Z,16.80
2019-03-09T22:14:16.183Z,11.95
2019-03-09T22:16:53.188Z,29.90
2019-03-09T22:19:17.765Z,23.85
2019-03-09T22:21:47.659Z,15.65
2019-03-09T22:24:19.429Z,10.82
2019-03-09T22:26:49.390Z,10.05
2019-03-09T22:29:19.382Z,10.00
2019-03-09T22:31:49.375Z,11.68
2019-03-09T22:34:19.334Z,11.08
2019-03-09T22:36:49.544Z,11.05
2019-03-09T22:39:20.404Z,10.32
2019-03-09T22:41:50.376Z,11.08
2019-03-09T22:44:20.427Z,10.88
2019-03-09T22:46:50.442Z,10.25
2019-03-09T22:49:20.259Z,10.80
2019-03-09T22:51:50.179Z,10.55
2019-03-09T22:54:20.179Z,10.28
2019-03-09T22:56:50.159Z,10.05
2019-03-09T22:59:20.138Z,10.93
2019-03-09T23:01:50.109Z,11.53
2019-03-09T23:04:20.158Z,11.28
2019-03-09T23:06:50.202Z,11.03
2019-03-09T23:09:20.438Z,10.48
2019-03-09T23:11:50.590Z,10.40
2019-03-09T23:14:21.638Z,9.90
2019-03-09T23:16:51.573Z,11.15
2019-03-09T23:19:21.615Z,9.70
2019-03-09T23:21:51.512Z,10.58
2019-03-09T23:24:21.488Z,10.45
2019-03-09T23:26:51.469Z,9.98
2019-03-09T23:29:21.519Z,10.13
2019-03-09T23:31:51.358Z,10.10
2019-03-09T23:34:21.385Z,9.70
2019-03-09T23:36:51.667Z,10.05
2019-03-09T23:39:21.716Z,10.55
2019-03-09T23:41:51.678Z,10.35
2019-03-09T23:44:21.725Z,10.48
2019-03-09T23:46:51.624Z,10.82
2019-03-09T23:49:21.537Z,9.93
2019-03-09T23:51:51.455Z,10.68
2019-03-09T23:54:21.457Z,12.58
2019-03-09T23:56:51.446Z,12.55
2019-03-09T23:59:21.447Z,13.18
